Time;durP1;ratioP1;P1;durP2;ratioP2;P2;SDS_P1;SDS_P2;PMS_P1;PMS_P2;Temp;Humidity;BMP_temperature;BMP_pressure;BME280_temperature;BME280_humidity;BME280_pressure;Samples;Min_cycle;Max_cycle;Signal;HPM_P1;HPM_P2
2022/05/29 00:01:11;;;;;;;;;;;;;;;22.43;28.02;98949.78;4474694;32;33656;-80
2022/05/29 00:03:39;;;;;;;;;;;;;;;22.57;27.61;98952.72;4467098;32;33061;-80
2022/05/29 00:06:08;;;;;;;;;;;;;;;22.33;27.84;98951.91;4452816;32;34024;-79
2022/05/29 00:08:37;;;;;;;;;;;;;;;22.48;27.39;98945.16;4455484;32;35270;-81
2022/05/29 00:11:05;;;;;;;;;;;;;;;22.53;27.81;98935.25;4482304;32;34072;-79
2022/05/29 00:13:32;;;;;;;;;;;;;;;22.44;27.60;98941.78;4482051;32;33561;-80
2022/05/29 00:15:59;;;;;;;;;;;;;;;22.40;27.63;98939.31;4481458;32;34341;-80
2022/05/29 00:18:27;;;;;;;;;;;;;;;22.59;27.38;98935.88;4474170;32;34207;-80
2022/05/29 00:20:54;;;;;;;;;;;;;;;22.57;27.35;98932.44;4481932;32;35112;-80
2022/05/29 00:23:22;;;;;;;;;;;;;;;22.45;27.59;98937.34;4454736;32;32986;-80
2022/05/29 00:25:50;;;;;;;;;;;;;;;22.34;27.29;98935.97;4466302;32;34320;-79
2022/05/29 00:28:17;;;;;;;;;;;;;;;22.31;27.47;98932.59;4479342;32;34195;-80
2022/05/29 00:30:45;;;;;;;;;;;;;;;22.25;27.62;98941.63;4457764;32;34290;-80
2022/05/29 00:33:13;;;;;;;;;;;;;;;22.43;27.18;98926.00;4483347;32;33543;-83
2022/05/29 00:35:41;;;;;;;;;;;;;;;22.09;27.33;98922.84;4484045;32;34154;-80
2022/05/29 00:38:08;;;;;;;;;;;;;;;22.11;27.43;98922.78;4462375;32;33881;-79
2022/05/29 00:40:42;;;;;;;;;;;;;;;22.13;27.85;98920.94;4454431;32;35118;-80
2022/05/29 00:43:09;;;;;;;;;;;;;;;22.13;27.55;98917.44;4454302;32;33355;-82
2022/05/29 00:46:05;;;;;;;;;;;;;;;22.22;27.45;98915.34;4468654;32;34027;-80
2022/05/29 00:48:33;;;;;;;;;;;;;;;22.38;27.12;98906.81;4466933;32;34054;-80
2022/05/29 00:51:01;;;;;;;;;;;;;;;22.10;27.46;98905.22;4468680;32;34247;-80
2022/05/29 00:53:29;;;;;;;;;;;;;;;22.18;27.34;98903.16;4468316;32;33350;-85
2022/05/29 00:56:01;;;;;;;;;;;;;;;22.23;27.26;98900.34;4484457;32;34277;-80
2022/05/29 00:58:28;;;;;;;;;;;;;;;22.02;27.73;98894.94;4454410;32;35242;-80
2022/05/29 01:00:55;;;;;;;;;;;;;;;22.22;27.57;98891.56;4468492;32;34214;-80
2022/05/29 01:03:23;;;;;;;;;;;;;;;22.22;27.37;98894.22;4454638;32;34273;-80
2022/05/29 01:05:50;;;;;;;;;;;;;;;22.32;27.29;98898.22;4459940;32;35100;-79
2022/05/29 01:08:20;;;;;;;;;;;;;;;22.28;27.48;98893.97;4466172;32;34175;-80
2022/05/29 01:10:50;;;;;;;;;;;;;;;22.30;27.48;98886.84;4468183;32;34154;-79
2022/05/29 01:13:18;;;;;;;;;;;;;;;22.37;27.67;98884.81;4465491;32;34194;-85
2022/05/29 01:16:08;;;;;;;;;;;;;;;22.14;27.96;98883.09;4452796;32;33710;-80
2022/05/29 01:18:35;;;;;;;;;;;;;;;22.17;27.80;98880.34;4438295;32;34238;-80
2022/05/29 01:21:21;;;;;;;;;;;;;;;22.26;27.59;98887.03;4452662;32;33473;-79
2022/05/29 01:23:55;;;;;;;;;;;;;;;22.05;27.76;98883.44;4458363;32;33221;-85
2022/05/29 01:26:26;;;;;;;;;;;;;;;22.17;27.63;98880.34;4468100;32;33832;-80
2022/05/29 01:28:53;;;;;;;;;;;;;;;22.05;27.39;98892.19;4465629;32;34401;-79
2022/05/29 01:31:33;;;;;;;;;;;;;;;22.15;27.25;98887.44;4467096;32;34203;-80
2022/05/29 01:34:05;;;;;;;;;;;;;;;22.12;27.34;98890.16;4453422;32;33556;-78
2022/05/29 01:36:42;;;;;;;;;;;;;;;22.18;27.48;98882.06;4451478;32;34273;-79
2022/05/29 01:39:12;;;;;;;;;;;;;;;22.07;27.44;98892.12;4461440;32;34272;-81
2022/05/29 01:41:44;;;;;;;;;;;;;;;21.87;27.86;98891.13;4455425;32;34658;-80
2022/05/29 01:44:16;;;;;;;;;;;;;;;22.12;27.24;98898.09;4451229;32;33123;-79
2022/05/29 01:46:44;;;;;;;;;;;;;;;22.13;27.45;98894.53;4451300;32;34177;-81
2022/05/29 01:49:17;;;;;;;;;;;;;;;22.13;27.61;98891.91;4451297;32;34435;-85
2022/05/29 01:51:58;;;;;;;;;;;;;;;22.20;27.62;98896.06;4458793;32;34013;-80
2022/05/29 01:54:39;;;;;;;;;;;;;;;22.37;27.24;98891.91;4451094;32;33143;-80
2022/05/29 01:57:08;;;;;;;;;;;;;;;22.26;27.43;98895.81;4458302;32;34217;-80
2022/05/29 01:59:44;;;;;;;;;;;;;;;22.30;27.13;98892.12;4466312;32;34226;-79
2022/05/29 02:02:14;;;;;;;;;;;;;;;22.39;26.97;98888.28;4452382;32;34899;-80
2022/05/29 02:04:44;;;;;;;;;;;;;;;22.41;26.99;98888.22;4451577;32;34320;-80
2022/05/29 02:10:11;;;;;;;;;;;;;;;22.52;26.35;98881.56;4456052;32;34235;-79
2022/05/29 02:12:39;;;;;;;;;;;;;;;22.53;26.50;98882.44;4451154;32;35069;-79
2022/05/29 02:15:08;;;;;;;;;;;;;;;22.55;26.56;98875.31;4451275;32;34244;-80
2022/05/29 02:17:42;;;;;;;;;;;;;;;22.45;26.44;98871.31;4464299;32;34267;-80
2022/05/29 02:20:17;;;;;;;;;;;;;;;22.45;26.40;98873.94;4454245;32;34104;-79
2022/05/29 02:22:44;;;;;;;;;;;;;;;22.37;26.42;98871.63;4467579;32;34150;-80
2022/05/29 02:25:14;;;;;;;;;;;;;;;22.54;25.95;98868.28;4466521;32;33748;-80
2022/05/29 02:27:46;;;;;;;;;;;;;;;22.27;26.01;98865.81;4466061;32;34840;-85
2022/05/29 02:30:14;;;;;;;;;;;;;;;22.34;25.91;98862.03;4465485;32;34499;-85
2022/05/29 02:32:53;;;;;;;;;;;;;;;22.40;25.75;98863.59;4452263;32;34096;-79
2022/05/29 02:35:31;;;;;;;;;;;;;;;22.37;25.90;98861.06;4455037;32;34185;-79
2022/05/29 02:38:04;;;;;;;;;;;;;;;22.40;25.86;98860.09;4464140;32;35180;-80
2022/05/29 02:40:42;;;;;;;;;;;;;;;22.41;25.75;98859.16;4454298;32;35001;-79
2022/05/29 02:43:36;;;;;;;;;;;;;;;22.41;25.75;98856.50;4466446;32;34373;-79
2022/05/29 02:46:06;;;;;;;;;;;;;;;22.45;26.13;98853.69;4442565;32;32846;-80
2022/05/29 02:48:36;;;;;;;;;;;;;;;22.46;26.36;98859.81;4466831;32;35232;-84
2022/05/29 02:51:07;;;;;;;;;;;;;;;22.43;26.02;98849.41;4466249;32;35181;-80
2022/05/29 02:53:34;;;;;;;;;;;;;;;22.23;25.05;98836.97;4455334;32;35068;-79
2022/05/29 02:56:04;;;;;;;;;;;;;;;21.95;25.69;98842.44;4454638;32;33274;-79
2022/05/29 02:58:32;;;;;;;;;;;;;;;21.89;26.27;98850.59;4466807;32;34261;-79
2022/05/29 03:01:18;;;;;;;;;;;;;;;22.07;25.79;98848.09;4465425;32;34295;-80
2022/05/29 03:04:07;;;;;;;;;;;;;;;21.98;25.68;98856.41;4458857;32;34351;-80
2022/05/29 03:06:34;;;;;;;;;;;;;;;21.87;25.23;98840.97;4457994;32;34339;-80
2022/05/29 03:09:05;;;;;;;;;;;;;;;21.33;26.03;98850.03;4467259;32;34819;-80
2022/05/29 03:11:33;;;;;;;;;;;;;;;21.81;25.95;98841.19;4464752;32;34229;-78
2022/05/29 03:14:09;;;;;;;;;;;;;;;22.14;26.22;98830.28;4458578;32;34424;-79
2022/05/29 03:16:52;;;;;;;;;;;;;;;22.03;25.75;98829.81;4466418;32;33673;-79
2022/05/29 03:19:28;;;;;;;;;;;;;;;21.86;26.24;98828.69;4467041;32;35764;-79
2022/05/29 03:21:58;;;;;;;;;;;;;;;22.10;25.99;98826.03;4467219;32;35275;-79
2022/05/29 03:24:32;;;;;;;;;;;;;;;22.24;26.20;98829.00;4467377;32;34554;-80
2022/05/29 03:27:10;;;;;;;;;;;;;;;22.36;26.08;98822.38;4464946;32;34191;-80
2022/05/29 03:29:42;;;;;;;;;;;;;;;22.22;26.85;98816.78;4465612;32;34177;-79
2022/05/29 03:32:10;;;;;;;;;;;;;;;22.33;26.76;98823.34;4465860;32;34278;-78
2022/05/29 03:34:37;;;;;;;;;;;;;;;22.09;24.69;98819.03;4467221;32;34375;-81
2022/05/29 03:37:06;;;;;;;;;;;;;;;21.56;25.19;98816.69;4457454;32;33332;-79
2022/05/29 03:39:34;;;;;;;;;;;;;;;22.11;25.46;98818.03;4451528;32;34300;-80
2022/05/29 03:42:01;;;;;;;;;;;;;;;22.23;26.10;98819.34;4450363;32;34227;-79
2022/05/29 03:44:28;;;;;;;;;;;;;;;22.46;26.23;98821.03;4451691;32;34995;-79
2022/05/29 03:46:56;;;;;;;;;;;;;;;22.55;26.40;98822.47;4454722;32;33274;-78
2022/05/29 03:49:23;;;;;;;;;;;;;;;22.69;26.49;98822.75;4451244;32;33647;-81
2022/05/29 03:51:52;;;;;;;;;;;;;;;22.81;26.49;98821.38;4454393;32;33858;-83
2022/05/29 03:54:20;;;;;;;;;;;;;;;22.77;26.69;98828.59;4456133;32;33770;-79
2022/05/29 03:56:47;;;;;;;;;;;;;;;22.92;26.50;98821.81;4459258;32;34033;-81
2022/05/29 03:59:15;;;;;;;;;;;;;;;22.86;26.22;98826.47;4462512;32;34236;-79
2022/05/29 04:01:43;;;;;;;;;;;;;;;22.98;26.05;98831.25;4465126;32;33038;-79
2022/05/29 04:04:10;;;;;;;;;;;;;;;23.06;26.22;98829.97;4466468;32;34253;-80
2022/05/29 04:06:40;;;;;;;;;;;;;;;22.95;26.64;98826.09;4461325;32;34392;-82
2022/05/29 04:12:06;;;;;;;;;;;;;;;22.58;27.03;98823.22;4466913;32;35197;-80
2022/05/29 04:14:38;;;;;;;;;;;;;;;22.48;27.08;98827.16;4468643;32;34058;-79
2022/05/29 04:17:06;;;;;;;;;;;;;;;22.67;27.13;98827.25;4460916;32;33300;-79
2022/05/29 04:19:33;;;;;;;;;;;;;;;22.89;27.37;98819.25;4464436;32;33935;-80
2022/05/29 04:22:00;;;;;;;;;;;;;;;22.68;27.73;98818.38;4468913;32;34108;-80
2022/05/29 04:24:28;;;;;;;;;;;;;;;23.16;26.51;98806.66;4455387;32;34912;-79
2022/05/29 04:26:55;;;;;;;;;;;;;;;22.91;27.07;98813.91;4460733;32;34285;-83
2022/05/29 04:29:22;;;;;;;;;;;;;;;22.98;26.79;98821.53;4467963;32;34317;-79
2022/05/29 04:34:36;;;;;;;;;;;;;;;22.67;27.67;98819.31;4468511;32;34245;-80
2022/05/29 04:37:04;;;;;;;;;;;;;;;22.61;27.50;98816.91;4459222;32;33234;-79
2022/05/29 04:39:34;;;;;;;;;;;;;;;22.86;27.55;98815.91;4458148;32;34210;-79
2022/05/29 04:42:01;;;;;;;;;;;;;;;23.05;27.73;98816.84;4468469;32;35385;-79
2022/05/29 04:44:29;;;;;;;;;;;;;;;22.85;27.60;98820.31;4468671;32;35273;-80
2022/05/29 04:47:00;;;;;;;;;;;;;;;22.77;27.77;98818.00;4460537;32;34039;-82
2022/05/29 04:49:27;;;;;;;;;;;;;;;22.86;28.16;98822.03;4457532;32;33985;-79
2022/05/29 04:51:55;;;;;;;;;;;;;;;23.20;28.37;98826.75;4468627;32;34424;-79
2022/05/29 04:54:22;;;;;;;;;;;;;;;23.33;28.55;98821.75;4468786;32;34381;-80
2022/05/29 04:56:49;;;;;;;;;;;;;;;23.03;28.84;98822.22;4462634;32;33303;-80
2022/05/29 04:59:17;;;;;;;;;;;;;;;23.16;28.33;98821.66;4457299;32;34283;-80
2022/05/29 05:01:44;;;;;;;;;;;;;;;23.43;28.56;98828.38;4456682;32;34859;-80
2022/05/29 05:04:11;;;;;;;;;;;;;;;22.43;27.43;98833.56;4468399;32;33639;-82
2022/05/29 05:06:39;;;;;;;;;;;;;;;22.12;27.76;98816.25;4474545;32;34196;-81
2022/05/29 05:09:06;;;;;;;;;;;;;;;22.41;27.46;98817.75;4483735;32;34946;-80
2022/05/29 05:11:34;;;;;;;;;;;;;;;22.33;27.23;98825.13;4484077;31;34965;-81
2022/05/29 05:14:01;;;;;;;;;;;;;;;21.29;29.25;98824.66;4484308;32;33731;-80
2022/05/29 05:16:29;;;;;;;;;;;;;;;21.44;29.94;98822.38;4477940;32;34101;-80
2022/05/29 05:18:56;;;;;;;;;;;;;;;20.05;32.82;98834.06;4468697;32;35033;-80
2022/05/29 05:21:24;;;;;;;;;;;;;;;20.62;32.48;98827.00;4476910;32;34210;-79
2022/05/29 05:23:51;;;;;;;;;;;;;;;19.24;34.68;98844.25;4468086;32;34979;-81
2022/05/29 05:26:19;;;;;;;;;;;;;;;18.93;35.60;98841.59;4471999;32;33489;-79
2022/05/29 05:28:47;;;;;;;;;;;;;;;20.45;33.24;98837.19;4468175;32;34206;-80
2022/05/29 05:31:14;;;;;;;;;;;;;;;20.39;32.46;98833.00;4459101;32;34258;-80
2022/05/29 05:33:42;;;;;;;;;;;;;;;19.20;34.24;98837.38;4477272;32;33730;-84
2022/05/29 05:36:10;;;;;;;;;;;;;;;19.18;34.42;98832.16;4479102;32;32683;-81
2022/05/29 05:38:38;;;;;;;;;;;;;;;18.86;34.67;98834.78;4484098;32;34273;-79
2022/05/29 05:41:07;;;;;;;;;;;;;;;18.91;34.33;98840.81;4463305;32;34225;-78
2022/05/29 05:43:34;;;;;;;;;;;;;;;18.29;34.43;98832.69;4466057;32;34413;-80
2022/05/29 05:46:05;;;;;;;;;;;;;;;18.28;35.15;98834.44;4469527;32;32263;-83
2022/05/29 05:48:33;;;;;;;;;;;;;;;18.81;34.81;98834.06;4474443;32;34090;-81
2022/05/29 05:51:01;;;;;;;;;;;;;;;19.70;32.98;98835.13;4483071;31;32620;-84
2022/05/29 05:53:28;;;;;;;;;;;;;;;19.97;32.56;98829.94;4482394;32;34819;-81
2022/05/29 05:56:03;;;;;;;;;;;;;;;20.17;32.67;98822.28;4479221;32;32801;-85
2022/05/29 05:58:30;;;;;;;;;;;;;;;20.92;31.81;98818.97;4468117;32;35108;-83
2022/05/29 06:01:02;;;;;;;;;;;;;;;21.56;30.91;98814.03;4474030;32;35173;-80
2022/05/29 06:03:30;;;;;;;;;;;;;;;21.67;30.27;98817.13;4483489;32;33933;-80
2022/05/29 06:05:58;;;;;;;;;;;;;;;21.98;29.37;98813.31;4484030;32;33469;-80
2022/05/29 06:08:25;;;;;;;;;;;;;;;22.51;27.76;98812.97;4483559;32;35094;-80
2022/05/29 06:10:52;;;;;;;;;;;;;;;22.40;28.12;98808.12;4476728;32;34197;-80
2022/05/29 06:13:20;;;;;;;;;;;;;;;22.08;28.50;98810.22;4476480;32;34112;-81
2022/05/29 06:15:47;;;;;;;;;;;;;;;22.14;28.09;98809.16;4469340;32;33467;-81
2022/05/29 06:18:15;;;;;;;;;;;;;;;22.62;28.17;98802.81;4473177;32;34559;-84
2022/05/29 06:20:42;;;;;;;;;;;;;;;22.61;27.32;98810.78;4468996;32;34235;-81
2022/05/29 06:23:10;;;;;;;;;;;;;;;22.50;27.91;98813.84;4479285;32;34049;-81
2022/05/29 06:25:38;;;;;;;;;;;;;;;22.77;27.02;98818.00;4478653;32;33506;-80
2022/05/29 06:28:05;;;;;;;;;;;;;;;23.59;26.95;98807.34;4466723;32;34252;-80
2022/05/29 06:30:33;;;;;;;;;;;;;;;23.43;26.32;98811.63;4466458;32;34361;-80
2022/05/29 06:33:01;;;;;;;;;;;;;;;22.85;26.36;98811.53;4476843;32;34166;-80
2022/05/29 06:35:28;;;;;;;;;;;;;;;22.89;26.59;98815.78;4482911;32;33684;-80
2022/05/29 06:37:56;;;;;;;;;;;;;;;21.99;26.36;98817.66;4483706;32;34252;-79
2022/05/29 06:40:23;;;;;;;;;;;;;;;21.93;26.56;98818.75;4475843;32;34991;-80
2022/05/29 06:42:51;;;;;;;;;;;;;;;22.24;27.37;98815.81;4467479;32;33996;-80
2022/05/29 06:45:19;;;;;;;;;;;;;;;22.39;25.83;98821.38;4467690;32;34162;-81
2022/05/29 06:47:46;;;;;;;;;;;;;;;22.49;25.97;98804.22;4467655;32;34015;-80
2022/05/29 06:50:13;;;;;;;;;;;;;;;22.13;27.10;98819.75;4467552;32;34974;-81
2022/05/29 06:52:41;;;;;;;;;;;;;;;22.14;27.42;98810.94;4467591;32;34446;-81
2022/05/29 06:55:08;;;;;;;;;;;;;;;22.49;27.29;98804.22;4467755;32;34302;-80
2022/05/29 06:57:46;;;;;;;;;;;;;;;21.93;26.88;98807.31;4467538;32;33806;-80
2022/05/29 07:08:36;;;;;;;;;;;;;;;22.81;25.59;98811.66;4467708;32;33991;-80
2022/05/29 07:11:08;;;;;;;;;;;;;;;22.56;26.44;98803.91;4467588;32;34545;-85
2022/05/29 07:13:36;;;;;;;;;;;;;;;23.26;24.66;98797.41;4453227;32;33974;-81
2022/05/29 07:16:03;;;;;;;;;;;;;;;22.30;26.35;98802.34;4467596;32;34055;-80
2022/05/29 07:18:32;;;;;;;;;;;;;;;22.22;25.72;98807.06;4467501;32;33759;-81
2022/05/29 07:21:00;;;;;;;;;;;;;;;22.31;25.72;98808.47;4453584;32;34374;-82
2022/05/29 07:23:27;;;;;;;;;;;;;;;21.52;26.62;98815.06;4467325;32;34359;-80
2022/05/29 07:25:55;;;;;;;;;;;;;;;22.14;25.80;98806.53;4453509;32;33171;-81
2022/05/29 07:28:22;;;;;;;;;;;;;;;21.91;26.69;98809.19;4467231;32;33991;-84
2022/05/29 07:30:50;;;;;;;;;;;;;;;21.30;26.44;98801.78;4467381;32;34357;-82
2022/05/29 07:33:18;;;;;;;;;;;;;;;20.62;26.91;98803.28;4467279;32;34054;-81
2022/05/29 07:35:45;;;;;;;;;;;;;;;20.89;27.21;98802.34;4453041;32;33305;-84
2022/05/29 07:38:12;;;;;;;;;;;;;;;21.46;26.46;98802.09;4467296;32;35023;-80
2022/05/29 07:40:40;;;;;;;;;;;;;;;21.88;26.24;98796.97;4466997;32;34315;-81
2022/05/29 07:43:19;;;;;;;;;;;;;;;22.23;25.39;98794.72;4466921;32;33096;-80
2022/05/29 07:45:48;;;;;;;;;;;;;;;21.02;25.81;98792.22;4467170;32;33782;-85
2022/05/29 07:48:16;;;;;;;;;;;;;;;22.08;26.13;98790.88;4466858;32;34162;-81
2022/05/29 07:50:43;;;;;;;;;;;;;;;21.14;26.34;98794.44;4453189;32;34311;-81
2022/05/29 07:53:11;;;;;;;;;;;;;;;21.67;26.67;98784.59;4453019;32;34316;-81
2022/05/29 07:55:38;;;;;;;;;;;;;;;22.32;25.88;98786.44;4453058;32;33582;-81
2022/05/29 07:58:06;;;;;;;;;;;;;;;21.93;26.03;98783.56;4452978;32;34828;-81
2022/05/29 08:00:34;;;;;;;;;;;;;;;20.99;27.27;98791.50;4466906;32;34526;-80
2022/05/29 08:03:02;;;;;;;;;;;;;;;21.04;26.96;98789.53;4452705;32;34095;-81
2022/05/29 08:05:31;;;;;;;;;;;;;;;21.80;26.91;98784.06;4452743;32;33085;-82
2022/05/29 08:07:58;;;;;;;;;;;;;;;20.36;28.39;98797.06;4466904;32;35133;-80
2022/05/29 08:10:26;;;;;;;;;;;;;;;21.59;27.47;98780.50;4466638;32;35099;-83
2022/05/29 08:12:53;;;;;;;;;;;;;;;21.69;26.78;98780.13;4466701;32;34317;-81
2022/05/29 08:15:20;;;;;;;;;;;;;;;21.25;27.10;98777.34;4466883;32;34388;-81
2022/05/29 08:17:47;;;;;;;;;;;;;;;21.82;26.73;98778.72;4466605;32;33612;-84
2022/05/29 08:20:15;;;;;;;;;;;;;;;22.06;26.78;98766.34;4466797;32;34244;-81
2022/05/29 08:22:42;;;;;;;;;;;;;;;22.78;26.40;98766.87;4452635;32;33720;-84
2022/05/29 08:30:43;;;;;;;;;;;;;;;21.37;26.72;98772.53;4466518;32;34176;-82
2022/05/29 08:33:12;;;;;;;;;;;;;;;22.44;26.02;98763.94;4466427;32;34211;-81
2022/05/29 08:35:40;;;;;;;;;;;;;;;21.75;26.87;98767.56;4452608;32;33463;-80
2022/05/29 08:38:08;;;;;;;;;;;;;;;22.40;26.43;98768.50;4466372;32;35097;-80
2022/05/29 08:40:39;;;;;;;;;;;;;;;22.64;26.73;98766.59;4466224;32;34081;-81
2022/05/29 08:43:08;;;;;;;;;;;;;;;22.31;26.56;98760.94;4466601;32;33617;-81
2022/05/29 08:45:35;;;;;;;;;;;;;;;23.58;25.19;98747.44;4452392;32;33639;-81
2022/05/29 08:48:03;;;;;;;;;;;;;;;23.42;25.72;98757.88;4452101;32;34992;-81
2022/05/29 08:50:39;;;;;;;;;;;;;;;22.79;27.14;98765.06;4466348;32;33548;-85
2022/05/29 08:53:20;;;;;;;;;;;;;;;23.31;25.46;98754.88;4452453;32;34957;-83
2022/05/29 08:56:08;;;;;;;;;;;;;;;23.61;25.21;98752.59;4454432;32;33307;-81
2022/05/29 08:58:40;;;;;;;;;;;;;;;23.27;24.60;98754.16;4454675;32;34152;-81
2022/05/29 09:01:14;;;;;;;;;;;;;;;22.44;25.81;98753.38;4454546;32;34517;-80
2022/05/29 09:03:42;;;;;;;;;;;;;;;21.56;26.42;98748.09;4454745;32;34608;-79
2022/05/29 09:06:11;;;;;;;;;;;;;;;22.20;25.70;98752.59;4468613;32;33281;-83
2022/05/29 09:09:10;;;;;;;;;;;;;;;21.48;26.84;98758.06;4454621;32;33870;-83
2022/05/29 09:11:49;;;;;;;;;;;;;;;21.86;25.77;98749.53;4450267;32;35200;-82
2022/05/29 09:14:20;;;;;;;;;;;;;;;22.59;24.88;98747.44;4454273;32;33823;-80
2022/05/29 09:16:49;;;;;;;;;;;;;;;22.53;24.96;98745.06;4454809;32;33237;-86
2022/05/29 09:19:22;;;;;;;;;;;;;;;22.86;25.34;98747.16;4468575;32;34997;-80
2022/05/29 09:21:52;;;;;;;;;;;;;;;22.13;25.95;98749.34;4454766;32;34115;-81
2022/05/29 09:24:24;;;;;;;;;;;;;;;21.97;25.52;98748.22;4468514;32;34649;-82
2022/05/29 09:26:51;;;;;;;;;;;;;;;21.82;25.35;98741.78;4454231;32;33421;-81
2022/05/29 09:29:18;;;;;;;;;;;;;;;22.38;24.85;98746.56;4468504;32;34225;-82
2022/05/29 09:31:46;;;;;;;;;;;;;;;21.77;24.75;98739.31;4468534;32;35141;-82
2022/05/29 09:34:13;;;;;;;;;;;;;;;20.98;26.33;98745.78;4468528;32;34112;-81
2022/05/29 09:36:52;;;;;;;;;;;;;;;21.68;25.24;98738.84;4468306;32;34208;-82
2022/05/29 09:39:23;;;;;;;;;;;;;;;22.05;24.33;98736.44;4454808;32;34974;-81
2022/05/29 09:41:54;;;;;;;;;;;;;;;21.69;26.37;98741.41;4454264;32;35004;-81
2022/05/29 09:44:21;;;;;;;;;;;;;;;22.41;25.08;98735.00;4454525;32;33787;-81
2022/05/29 09:46:50;;;;;;;;;;;;;;;21.94;25.71;98735.16;4454235;32;33142;-81
2022/05/29 09:52:20;;;;;;;;;;;;;;;22.62;26.13;98725.31;4456352;32;35212;-80
2022/05/29 09:55:06;;;;;;;;;;;;;;;21.88;26.09;98728.34;4454541;32;34315;-82
2022/05/29 09:57:40;;;;;;;;;;;;;;;22.95;25.02;98725.63;4467918;32;33461;-81
2022/05/29 10:00:11;;;;;;;;;;;;;;;22.51;25.75;98725.78;4454131;32;34153;-80
2022/05/29 10:02:45;;;;;;;;;;;;;;;22.27;25.57;98723.22;4451085;32;34264;-85
2022/05/29 10:05:23;;;;;;;;;;;;;;;21.96;25.36;98723.59;4450022;32;33763;-79
2022/05/29 10:07:51;;;;;;;;;;;;;;;22.08;26.67;98727.53;4451009;32;34051;-86
2022/05/29 10:10:24;;;;;;;;;;;;;;;22.09;26.69;98718.72;4451096;32;34206;-80
2022/05/29 10:12:53;;;;;;;;;;;;;;;21.80;26.29;98726.00;4452397;32;34333;-80
2022/05/29 10:15:26;;;;;;;;;;;;;;;22.23;26.70;98719.00;4452574;32;33784;-85
2022/05/29 10:17:54;;;;;;;;;;;;;;;21.73;26.50;98716.62;4451548;32;32920;-81
2022/05/29 10:20:25;;;;;;;;;;;;;;;21.29;26.10;98720.94;4451522;32;33892;-81
2022/05/29 10:22:55;;;;;;;;;;;;;;;20.81;27.88;98716.59;4452315;32;35102;-81
2022/05/29 10:25:23;;;;;;;;;;;;;;;20.97;26.98;98703.69;4451200;32;34064;-85
2022/05/29 10:27:52;;;;;;;;;;;;;;;22.29;26.70;98707.34;4452521;32;34089;-84
2022/05/29 10:30:45;;;;;;;;;;;;;;;22.70;26.40;98710.84;4451023;32;34933;-83
2022/05/29 10:33:18;;;;;;;;;;;;;;;22.41;26.50;98709.44;4439995;32;34331;-81
2022/05/29 10:35:46;;;;;;;;;;;;;;;22.20;25.84;98711.22;4451256;32;34660;-81
2022/05/29 10:38:24;;;;;;;;;;;;;;;21.75;27.04;98709.50;4451393;32;33211;-84
2022/05/29 10:40:52;;;;;;;;;;;;;;;21.28;27.15;98698.13;4451085;32;33637;-82
2022/05/29 10:43:40;;;;;;;;;;;;;;;21.80;27.03;98704.03;4451062;32;34382;-81
2022/05/29 10:46:11;;;;;;;;;;;;;;;22.15;26.13;98699.97;4446694;32;34187;-82
2022/05/29 10:48:57;;;;;;;;;;;;;;;21.87;26.48;98703.72;4452327;32;33850;-82
2022/05/29 10:51:28;;;;;;;;;;;;;;;21.68;27.44;98708.03;4451884;32;33916;-86
2022/05/29 10:53:59;;;;;;;;;;;;;;;21.19;27.32;98707.25;4450900;32;33959;-81
2022/05/29 10:56:43;;;;;;;;;;;;;;;20.88;28.23;98703.13;4452407;32;34239;-81
2022/05/29 10:59:10;;;;;;;;;;;;;;;21.54;28.32;98703.28;4451132;32;33449;-81
2022/05/29 11:04:48;;;;;;;;;;;;;;;21.47;28.47;98700.94;4467868;32;33612;-81
2022/05/29 11:07:30;;;;;;;;;;;;;;;21.14;28.65;98691.63;4467528;32;34712;-86
2022/05/29 11:10:05;;;;;;;;;;;;;;;21.40;26.79;98697.69;4467735;32;34071;-81
2022/05/29 11:12:58;;;;;;;;;;;;;;;21.73;27.16;98695.50;4455282;32;34900;-80
2022/05/29 11:15:25;;;;;;;;;;;;;;;22.20;26.05;98695.41;4453364;32;34440;-80
2022/05/29 11:17:58;;;;;;;;;;;;;;;21.69;26.83;98693.91;4467028;32;33942;-85
2022/05/29 11:20:29;;;;;;;;;;;;;;;21.60;27.83;98699.56;4467521;32;33106;-81
2022/05/29 11:23:30;;;;;;;;;;;;;;;21.58;27.62;98691.69;4467402;32;34208;-81
2022/05/29 11:26:00;;;;;;;;;;;;;;;21.83;27.73;98681.03;4449014;32;34324;-81
2022/05/29 11:28:39;;;;;;;;;;;;;;;20.78;28.09;98677.16;4453534;32;35107;-82
2022/05/29 11:31:25;;;;;;;;;;;;;;;21.55;26.76;98673.34;4467285;32;33545;-80
2022/05/29 11:33:53;;;;;;;;;;;;;;;21.60;27.78;98673.19;4467258;32;34257;-81
2022/05/29 11:36:20;;;;;;;;;;;;;;;21.82;27.37;98681.06;4467410;32;34523;-82
2022/05/29 11:38:56;;;;;;;;;;;;;;;21.75;26.73;98672.56;4467006;32;35266;-82
2022/05/29 11:41:31;;;;;;;;;;;;;;;21.52;28.06;98676.13;4467275;32;33716;-83
2022/05/29 11:44:03;;;;;;;;;;;;;;;22.11;27.22;98670.19;4467112;32;34172;-81
2022/05/29 11:52:40;;;;;;;;;;;;;;;21.65;28.16;98660.66;4467008;32;33467;-81
2022/05/29 11:55:10;;;;;;;;;;;;;;;21.43;27.56;98659.81;4453135;32;35046;-82
2022/05/29 11:57:50;;;;;;;;;;;;;;;21.35;28.22;98666.22;4453004;32;34515;-84
2022/05/29 12:00:17;;;;;;;;;;;;;;;22.04;26.72;98658.16;4452952;32;34119;-80
2022/05/29 12:02:46;;;;;;;;;;;;;;;21.56;26.96;98655.78;4466626;32;34274;-82
2022/05/29 12:05:33;;;;;;;;;;;;;;;21.99;27.21;98660.13;4453657;32;34548;-85
2022/05/29 12:08:04;;;;;;;;;;;;;;;21.84;26.23;98658.13;4452632;32;34366;-81
2022/05/29 12:10:33;;;;;;;;;;;;;;;21.62;27.33;98643.16;4467103;32;34314;-81
2022/05/29 12:13:02;;;;;;;;;;;;;;;22.82;26.21;98651.28;4452686;32;33889;-85
2022/05/29 12:15:30;;;;;;;;;;;;;;;22.19;26.14;98646.13;4466606;32;33806;-81
2022/05/29 12:18:01;;;;;;;;;;;;;;;21.63;26.20;98644.06;4452955;32;34393;-81
2022/05/29 12:20:34;;;;;;;;;;;;;;;21.60;26.77;98644.19;4452672;32;33353;-81
2022/05/29 12:23:02;;;;;;;;;;;;;;;22.88;26.18;98642.22;4452653;32;32731;-80
2022/05/29 12:25:33;;;;;;;;;;;;;;;22.02;26.39;98643.31;4452468;32;35059;-80
2022/05/29 12:28:02;;;;;;;;;;;;;;;22.19;26.22;98648.75;4466585;32;34142;-81
2022/05/29 12:30:32;;;;;;;;;;;;;;;21.03;27.99;98648.16;4454693;32;34079;-80
2022/05/29 12:33:01;;;;;;;;;;;;;;;22.19;27.02;98642.63;4455222;32;33949;-81
2022/05/29 12:35:35;;;;;;;;;;;;;;;22.33;26.87;98654.31;4454670;32;34097;-82
2022/05/29 12:38:18;;;;;;;;;;;;;;;22.89;26.00;98641.31;4468791;32;33720;-83
2022/05/29 12:40:51;;;;;;;;;;;;;;;21.67;27.19;98642.13;4468749;32;34214;-82
2022/05/29 12:43:28;;;;;;;;;;;;;;;22.43;26.80;98638.94;4468788;32;33282;-82
2022/05/29 12:46:08;;;;;;;;;;;;;;;22.71;26.69;98643.84;4468352;32;35149;-81
2022/05/29 12:48:47;;;;;;;;;;;;;;;21.69;27.53;98646.44;4468579;32;35332;-80
2022/05/29 12:51:33;;;;;;;;;;;;;;;22.46;26.41;98637.94;4454326;32;34620;-81
2022/05/29 12:54:00;;;;;;;;;;;;;;;23.71;24.80;98637.44;4468895;32;33943;-81
2022/05/29 12:56:43;;;;;;;;;;;;;;;23.66;25.60;98642.09;4468896;32;34579;-80
2022/05/29 12:59:38;;;;;;;;;;;;;;;22.88;25.75;98635.19;4440180;32;950985;-82
2022/05/29 13:02:17;;;;;;;;;;;;;;;20.92;28.45;98647.69;4467068;32;34208;-81
2022/05/29 13:05:03;;;;;;;;;;;;;;;22.06;26.36;98637.00;4468650;32;33233;-81
2022/05/29 13:07:33;;;;;;;;;;;;;;;22.48;24.64;98636.09;4468285;32;34811;-80
2022/05/29 13:10:13;;;;;;;;;;;;;;;23.45;24.70;98646.63;4455346;32;34903;-81
2022/05/29 13:12:44;;;;;;;;;;;;;;;22.33;26.00;98638.47;4468822;32;34974;-81
2022/05/29 13:15:28;;;;;;;;;;;;;;;22.48;26.15;98644.87;4468417;32;33497;-81
2022/05/29 13:18:03;;;;;;;;;;;;;;;22.87;25.45;98643.16;4468432;32;34207;-82
2022/05/29 13:20:31;;;;;;;;;;;;;;;22.62;27.14;98648.69;4468442;32;34353;-83
2022/05/29 13:23:02;;;;;;;;;;;;;;;23.64;25.44;98653.66;4454287;32;34523;-85
2022/05/29 13:25:31;;;;;;;;;;;;;;;23.19;25.83;98642.56;4454684;32;34055;-81
2022/05/29 13:27:59;;;;;;;;;;;;;;;22.89;25.71;98639.53;4454374;32;34169;-81
2022/05/29 13:30:38;;;;;;;;;;;;;;;23.86;25.15;98640.25;4468047;32;34922;-81
2022/05/29 13:33:24;;;;;;;;;;;;;;;23.34;24.92;98632.19;4468232;32;34077;-81
2022/05/29 13:35:51;;;;;;;;;;;;;;;23.27;24.90;98637.78;4468865;32;33600;-82
2022/05/29 13:38:37;;;;;;;;;;;;;;;22.00;25.78;98639.88;4453953;32;34874;-80
2022/05/29 13:41:05;;;;;;;;;;;;;;;23.28;24.18;98623.59;4467977;32;34023;-81
2022/05/29 13:43:36;;;;;;;;;;;;;;;22.97;24.67;98618.06;4468062;32;35033;-86